Chicago Midway International Airport
KMDW : now visible

Airfield :











YOU CAN JOIN US ON...

 
LOGIN :

Register | Disclaimer

   EN    FR    IT 

 









Legend :    VFR   Marginal VFR   IFR   Intensive IFR   Very Intensive IFR
Visi :
Ceiling :
>= 8 km
>= 3000ft
5 to 8 km
1000 to 3000 ft
1500m to 5 km
500 to 1000 ft
800 to 1500m
200 to 500 ft
< 800m
< 200 ft
Symbols :   Thunderstorms  Fog  Heavy snow  Heavy precipitations  Wind > 20 kt






- Airport Elevation : 620 ft
- IATA code : MDW


KMDW - Chicago Midway International

CURRENT METAR :
  • 011753Z 01005KT 10SM SCT023 BKN075 10/03 A3008 RMK AO2 SLP192 T01000033 10100 20039 58006

EXPIRED METARs :
  • 011653Z 03003KT 10SM SCT017 OVC075 09/04 A3010 RMK AO2 SLP199 T00890039
  • 011635Z 36007KT 10SM SCT015 OVC075 08/04 A3010 RMK AO2 T00830039
  • 011623Z 02007KT 10SM BKN015 OVC075 08/04 A3010 RMK AO2 T00780039
  • 011553Z 02004KT 10SM BKN013 OVC075 07/04 A3010 RMK AO2 SLP200 T00720039

TAF KMDW
Valid from the 01 at 18:00 until the 03 at 00:00 UTC


011739Z 0118/0224 04007KT P6SM SCT020 BKN070
TEMPO 0118/0121 BKN020
FM020800 08003KT 6SM BR BKN250
TEMPO 0209/0213 3SM BR
FM021400 10008KT P6SM SCT100 BKN250



MET'MAP, your aeronautical weather chart ! - Copyright ORBIFLY December 2007 - Disclaimer

ORBIFLY MET'MAP TEAM :

Programming & Development : Alexandra Zaïnal
Concept & original design : Baudouin d'Aumeries
Assistance for programming : Marc-Olivier Méhu
Technical & hardware support : Manuel Goepfert

Contact : metmap@orbifly.com




SOURCES & CREDITS :

   NOAA       Earth
Advisory